createdAt,value
2018-08-12T00:00:55.749Z,16.61
2018-08-12T00:03:25.000Z,16.12
2018-08-12T00:05:53.941Z,16.37
2018-08-12T00:08:22.843Z,16.40
2018-08-12T00:10:51.735Z,16.16
2018-08-12T00:13:20.637Z,16.05
2018-08-12T00:15:49.553Z,16.10
2018-08-12T00:18:18.501Z,16.13
2018-08-12T00:20:47.382Z,16.04
2018-08-12T00:23:16.269Z,16.24
2018-08-12T00:25:45.170Z,16.24
2018-08-12T00:28:14.095Z,16.06
2018-08-12T00:30:43.002Z,15.89
2018-08-12T00:33:13.015Z,15.80
2018-08-12T00:35:41.930Z,15.80
2018-08-12T00:38:10.814Z,15.75
2018-08-12T00:40:39.728Z,15.94
2018-08-12T00:43:08.625Z,15.84
2018-08-12T00:45:37.529Z,15.75
2018-08-12T00:48:06.464Z,15.73
2018-08-12T00:50:35.334Z,15.63
2018-08-12T00:53:04.227Z,15.82
2018-08-12T00:55:33.259Z,15.79
2018-08-12T00:58:02.179Z,15.93
2018-08-12T01:00:31.061Z,15.98
2018-08-12T01:03:00.030Z,15.90
2018-08-12T01:05:28.874Z,15.84
2018-08-12T01:07:57.905Z,15.82
2018-08-12T01:10:26.818Z,15.71
2018-08-12T01:12:55.727Z,15.75
2018-08-12T01:15:24.643Z,15.84
2018-08-12T01:17:53.601Z,15.72
2018-08-12T01:20:24.121Z,15.74
2018-08-12T01:22:53.002Z,15.61
2018-08-12T01:25:22.237Z,15.70
2018-08-12T01:27:52.186Z,15.75
2018-08-12T01:30:22.066Z,15.85
2018-08-12T01:32:50.944Z,15.72
2018-08-12T01:35:19.914Z,15.65
2018-08-12T01:37:49.451Z,15.54
2018-08-12T01:40:19.119Z,15.54
2018-08-12T01:42:48.059Z,15.61
2018-08-12T01:45:18.476Z,15.68
2018-08-12T01:47:47.413Z,15.13
2018-08-12T01:50:17.518Z,15.33
2018-08-12T01:52:46.568Z,15.45
2018-08-12T01:55:15.839Z,15.36
2018-08-12T01:57:44.739Z,15.17
2018-08-12T02:00:18.947Z,15.27
2018-08-12T02:02:48.318Z,15.28
2018-08-12T02:05:17.594Z,15.33
2018-08-12T02:07:46.532Z,15.42
2018-08-12T02:10:15.451Z,15.27
2018-08-12T02:12:44.369Z,15.28
2018-08-12T02:15:13.351Z,15.27
2018-08-12T02:17:42.590Z,15.34
2018-08-12T02:20:12.221Z,15.32
2018-08-12T02:22:41.556Z,15.34
2018-08-12T02:25:11.225Z,15.20
2018-08-12T02:27:40.187Z,15.31
2018-08-12T02:30:10.850Z,15.46
2018-08-12T02:32:39.972Z,15.45
2018-08-12T02:35:09.255Z,15.32
2018-08-12T02:37:38.172Z,15.28
2018-08-12T02:40:08.097Z,15.39
2018-08-12T02:42:36.953Z,15.46
2018-08-12T02:45:08.945Z,15.47
2018-08-12T02:47:37.837Z,15.57
2018-08-12T02:50:06.909Z,15.55
2018-08-12T02:52:36.401Z,15.73
2018-08-12T02:55:06.164Z,15.59
2018-08-12T02:57:35.057Z,15.76
2018-08-12T03:00:05.968Z,15.84
2018-08-12T03:02:34.848Z,15.95
2018-08-12T03:05:04.049Z,15.87
2018-08-12T03:07:33.072Z,15.85
2018-08-12T03:10:01.955Z,15.73
2018-08-12T03:12:30.844Z,15.78
2018-08-12T03:14:59.780Z,15.76
2018-08-12T03:17:28.678Z,15.76
2018-08-12T03:19:57.584Z,15.64
2018-08-12T03:22:26.627Z,15.64
2018-08-12T03:24:55.430Z,15.65
2018-08-12T03:27:24.330Z,15.43
2018-08-12T03:29:53.212Z,15.69
2018-08-12T03:32:22.107Z,15.86
2018-08-12T03:34:51.106Z,15.89
2018-08-12T03:37:20.039Z,15.82
2018-08-12T03:39:48.956Z,15.81
2018-08-12T03:42:17.854Z,15.79
2018-08-12T03:44:46.753Z,15.74
2018-08-12T03:47:15.651Z,15.82
2018-08-12T03:49:44.597Z,15.85
2018-08-12T03:52:13.470Z,15.79
2018-08-12T03:54:42.369Z,15.81
2018-08-12T03:57:11.270Z,15.85
2018-08-12T03:59:40.165Z,15.93
2018-08-12T04:02:09.086Z,15.87
2018-08-12T04:04:38.147Z,15.85
2018-08-12T04:07:07.112Z,15.72
2018-08-12T04:09:35.997Z,15.83
2018-08-12T04:12:04.923Z,15.88
2018-08-12T04:14:33.863Z,15.87
2018-08-12T04:17:02.781Z,15.81
2018-08-12T04:19:31.974Z,15.81
2018-08-12T04:22:01.263Z,15.77
2018-08-12T04:24:30.184Z,15.57
2018-08-12T04:26:59.135Z,15.59
2018-08-12T04:29:28.403Z,15.73
2018-08-12T04:31:57.702Z,15.53
2018-08-12T04:34:26.956Z,15.86
2018-08-12T04:36:56.049Z,15.84
2018-08-12T04:39:24.953Z,15.91
2018-08-12T04:41:53.855Z,15.93
2018-08-12T04:44:22.740Z,15.79
2018-08-12T04:46:51.692Z,15.74
2018-08-12T04:49:20.591Z,15.95
2018-08-12T04:51:49.469Z,15.85
2018-08-12T04:54:18.519Z,15.96
2018-08-12T04:56:47.428Z,16.05
2018-08-12T04:59:16.540Z,16.06
2018-08-12T05:01:45.552Z,16.06
2018-08-12T05:04:14.430Z,16.00
2018-08-12T05:06:43.384Z,15.88
2018-08-12T05:09:12.685Z,16.06
2018-08-12T05:11:41.579Z,16.13
2018-08-12T05:14:10.455Z,16.17
2018-08-12T05:16:39.360Z,16.13
2018-08-12T05:19:08.273Z,15.98
2018-08-12T05:21:37.196Z,16.22
2018-08-12T05:24:07.166Z,16.03
2018-08-12T05:26:36.131Z,16.30
2018-08-12T05:29:05.110Z,16.40
2018-08-12T05:31:34.063Z,16.52
2018-08-12T05:34:03.081Z,16.54
2018-08-12T05:36:33.030Z,16.52
2018-08-12T05:39:01.897Z,16.65
2018-08-12T05:41:30.794Z,16.47
2018-08-12T05:43:59.743Z,16.51
2018-08-12T05:46:28.616Z,16.59
2018-08-12T05:48:57.532Z,16.53
2018-08-12T05:51:27.475Z,16.65
2018-08-12T05:53:57.266Z,16.57
2018-08-12T05:56:26.197Z,16.65
2018-08-12T05:58:55.081Z,16.94
2018-08-12T06:01:24.117Z,16.87
2018-08-12T06:03:53.062Z,17.02
2018-08-12T06:06:21.946Z,17.06
2018-08-12T06:08:50.856Z,17.09
2018-08-12T06:11:19.979Z,17.10
2018-08-12T06:13:48.954Z,17.24
2018-08-12T06:16:17.949Z,17.25
2018-08-12T06:18:46.849Z,17.23
2018-08-12T06:21:15.756Z,17.47
2018-08-12T06:23:44.668Z,17.43
2018-08-12T06:26:13.522Z,17.31
2018-08-12T06:28:42.437Z,17.51
2018-08-12T06:31:11.345Z,17.64
2018-08-12T06:33:40.252Z,17.55
2018-08-12T06:36:09.185Z,17.55
2018-08-12T06:38:38.034Z,17.60
2018-08-12T06:41:06.979Z,17.67
2018-08-12T06:43:35.921Z,17.78
2018-08-12T06:46:04.804Z,17.76
2018-08-12T06:48:33.715Z,17.69
2018-08-12T06:51:02.656Z,17.74
2018-08-12T06:53:31.574Z,17.89
2018-08-12T06:56:00.475Z,17.86
2018-08-12T06:58:29.357Z,18.06
2018-08-12T07:00:59.322Z,18.06
2018-08-12T07:03:28.257Z,18.23
2018-08-12T07:05:57.133Z,18.25
2018-08-12T07:08:26.021Z,18.30
2018-08-12T07:10:54.973Z,18.32
2018-08-12T07:13:24.029Z,18.27
2018-08-12T07:15:52.909Z,18.25
2018-08-12T07:18:21.819Z,18.31
2018-08-12T07:20:50.705Z,18.46
2018-08-12T07:23:19.711Z,18.45
2018-08-12T07:25:48.617Z,18.65
2018-08-12T07:28:17.545Z,18.69
2018-08-12T07:30:46.493Z,18.63
2018-08-12T07:33:15.409Z,18.59
2018-08-12T07:35:44.300Z,18.65
2018-08-12T07:38:13.198Z,18.76
2018-08-12T07:40:42.128Z,18.79
2018-08-12T07:43:11.004Z,18.84
2018-08-12T07:45:39.906Z,18.96
2018-08-12T07:48:08.804Z,19.04
2018-08-12T07:50:37.697Z,19.08
2018-08-12T07:53:06.645Z,19.15
2018-08-12T07:55:35.619Z,19.24
2018-08-12T07:58:04.415Z,19.29
2018-08-12T08:00:33.299Z,19.34
2018-08-12T08:03:02.208Z,19.35
2018-08-12T08:05:31.093Z,19.49
2018-08-12T08:08:00.066Z,19.56
2018-08-12T08:10:29.025Z,19.53
2018-08-12T08:12:57.912Z,19.65
2018-08-12T08:15:26.944Z,19.70
2018-08-12T08:17:55.856Z,19.82
2018-08-12T08:20:24.757Z,19.89
2018-08-12T08:22:53.668Z,19.97
2018-08-12T08:25:22.712Z,20.06
2018-08-12T08:27:52.616Z,20.17
2018-08-12T08:30:21.514Z,20.21
2018-08-12T08:32:50.429Z,20.30
2018-08-12T08:35:19.347Z,20.33
2018-08-12T08:37:48.242Z,20.36
2018-08-12T08:40:17.701Z,20.37
2018-08-12T08:42:46.894Z,20.41
2018-08-12T08:45:19.090Z,20.52
2018-08-12T08:47:49.100Z,20.65
2018-08-12T08:50:19.297Z,20.63
2018-08-12T08:52:48.182Z,20.69
2018-08-12T08:55:17.397Z,20.70
2018-08-12T08:57:46.834Z,20.85
2018-08-12T09:00:18.478Z,20.92
2018-08-12T09:02:49.815Z,21.20
2018-08-12T09:05:19.095Z,21.24
2018-08-12T09:07:48.231Z,21.34
2018-08-12T09:10:18.149Z,21.43
2018-08-12T09:12:47.125Z,21.64
2018-08-12T09:15:17.719Z,21.68
2018-08-12T09:17:47.123Z,21.83
2018-08-12T09:20:18.275Z,21.97
2018-08-12T09:22:47.199Z,22.07
2018-08-12T09:25:16.279Z,22.08
2018-08-12T09:27:45.184Z,22.21
2018-08-12T09:30:19.036Z,22.20
2018-08-12T09:32:48.083Z,22.19
2018-08-12T09:35:16.966Z,22.22
2018-08-12T09:37:45.881Z,22.25
2018-08-12T09:40:15.974Z,22.33
2018-08-12T09:42:45.873Z,22.40
2018-08-12T09:45:17.442Z,22.47
2018-08-12T09:47:46.485Z,22.59
2018-08-12T09:50:16.449Z,22.56
2018-08-12T09:52:45.906Z,22.62
2018-08-12T09:55:15.263Z,22.71
2018-08-12T09:57:44.153Z,22.73
2018-08-12T10:00:20.446Z,22.88
2018-08-12T10:02:50.377Z,22.92
2018-08-12T10:05:19.561Z,23.07
2018-08-12T10:07:48.457Z,23.07
2018-08-12T10:10:17.748Z,22.95
2018-08-12T10:12:46.941Z,23.10
2018-08-12T10:15:16.363Z,23.11
2018-08-12T10:17:47.289Z,23.27
2018-08-12T10:20:16.277Z,23.35
2018-08-12T10:22:45.222Z,23.34
2018-08-12T10:25:14.119Z,23.35
2018-08-12T10:27:43.103Z,23.32
2018-08-12T10:30:13.213Z,23.38
2018-08-12T10:32:42.122Z,23.50
2018-08-12T10:35:12.457Z,23.64
2018-08-12T10:37:41.845Z,23.56
2018-08-12T10:40:12.932Z,23.39
2018-08-12T10:42:42.057Z,23.41
2018-08-12T10:45:11.757Z,23.40
2018-08-12T10:47:40.891Z,23.58
2018-08-12T10:50:13.016Z,23.69
2018-08-12T10:52:43.112Z,23.81
2018-08-12T10:55:12.898Z,23.80
2018-08-12T10:57:41.933Z,23.81
2018-08-12T11:00:18.266Z,23.68
2018-08-12T11:02:47.759Z,23.85
2018-08-12T11:05:17.086Z,23.93
2018-08-12T11:07:47.983Z,24.03
2018-08-12T11:10:16.935Z,24.15
2018-08-12T11:12:45.916Z,24.46
2018-08-12T11:15:14.865Z,24.42
2018-08-12T11:17:43.764Z,24.30
2018-08-12T11:20:12.689Z,24.21
2018-08-12T11:22:41.599Z,24.30
2018-08-12T11:25:11.623Z,24.21
2018-08-12T11:27:40.580Z,24.31
2018-08-12T11:30:13.457Z,24.48
2018-08-12T11:32:42.454Z,24.68
2018-08-12T11:35:12.837Z,24.60
2018-08-12T11:37:43.290Z,24.42
2018-08-12T11:40:13.179Z,24.50
2018-08-12T11:42:42.152Z,25.07
2018-08-12T11:45:15.030Z,24.93
2018-08-12T11:47:44.374Z,25.03
2018-08-12T11:50:13.821Z,25.08
2018-08-12T11:52:43.552Z,25.10
2018-08-12T11:55:13.648Z,25.25
2018-08-12T11:57:42.527Z,25.32
2018-08-12T12:00:15.039Z,25.32
2018-08-12T12:02:44.823Z,25.26
2018-08-12T12:05:14.100Z,25.14
2018-08-12T12:07:43.133Z,25.61
2018-08-12T12:10:14.460Z,25.67
2018-08-12T12:12:44.443Z,25.85
2018-08-12T12:15:14.294Z,25.72
2018-08-12T12:17:43.728Z,25.64
2018-08-12T12:20:13.314Z,25.70
2018-08-12T12:22:42.887Z,25.66
2018-08-12T12:25:12.964Z,25.70
2018-08-12T12:27:41.825Z,25.94
2018-08-12T12:30:13.530Z,25.81
2018-08-12T12:32:43.171Z,25.76
2018-08-12T12:35:12.124Z,26.18
2018-08-12T12:37:41.415Z,25.76
2018-08-12T12:40:12.219Z,26.01
2018-08-12T12:42:41.245Z,25.75
2018-08-12T12:45:11.481Z,26.07
2018-08-12T12:47:40.622Z,26.34
2018-08-12T12:50:15.046Z,26.26
2018-08-12T12:52:43.964Z,26.46
2018-08-12T12:55:12.900Z,26.47
2018-08-12T12:57:41.824Z,26.44
2018-08-12T13:00:12.539Z,26.52
2018-08-12T13:02:41.416Z,26.37
2018-08-12T13:05:12.105Z,26.31
2018-08-12T13:07:41.084Z,26.66
2018-08-12T13:10:10.570Z,26.69
2018-08-12T13:12:40.137Z,26.66
2018-08-12T13:15:10.177Z,26.82
2018-08-12T13:17:39.472Z,26.85
2018-08-12T13:20:10.426Z,26.94
2018-08-12T13:22:39.316Z,26.77
2018-08-12T13:25:11.699Z,26.64
2018-08-12T13:27:42.066Z,26.43
2018-08-12T13:30:11.921Z,26.79
2018-08-12T13:32:41.910Z,26.62
2018-08-12T13:35:10.808Z,26.68
2018-08-12T13:37:39.697Z,26.75
2018-08-12T13:40:10.700Z,26.80
2018-08-12T13:42:40.231Z,26.94
2018-08-12T13:45:11.164Z,26.92
2018-08-12T13:47:41.281Z,26.96
2018-08-12T13:50:13.365Z,26.80
2018-08-12T13:52:42.305Z,26.86
2018-08-12T13:55:11.263Z,26.70
2018-08-12T13:57:40.220Z,26.58
2018-08-12T14:00:11.167Z,26.72
2018-08-12T14:02:41.606Z,26.70
2018-08-12T14:05:11.282Z,26.58
2018-08-12T14:07:40.233Z,26.58
2018-08-12T14:10:10.206Z,26.82
2018-08-12T14:12:39.384Z,27.11
2018-08-12T14:15:11.075Z,27.21
2018-08-12T14:17:40.739Z,27.33
2018-08-12T14:20:10.721Z,26.98
2018-08-12T14:22:39.823Z,26.92
2018-08-12T14:25:09.235Z,26.88
2018-08-12T14:27:38.572Z,27.14
2018-08-12T14:30:11.058Z,26.95
2018-08-12T14:32:39.962Z,26.90
2018-08-12T14:35:09.135Z,27.06
2018-08-12T14:37:38.702Z,26.92
2018-08-12T14:40:08.699Z,26.97
2018-08-12T14:42:37.682Z,26.85
2018-08-12T14:45:07.805Z,26.84
2018-08-12T14:47:37.074Z,26.84
2018-08-12T14:50:07.679Z,26.89
2018-08-12T14:52:36.618Z,26.82
2018-08-12T14:55:06.625Z,26.96
2018-08-12T14:57:35.652Z,27.09
2018-08-12T15:00:05.278Z,26.98
2018-08-12T15:02:34.154Z,27.27
2018-08-12T15:05:03.207Z,27.01
2018-08-12T15:07:32.106Z,26.81
2018-08-12T15:10:01.042Z,26.85
2018-08-12T15:12:29.953Z,27.03
2018-08-12T15:14:58.865Z,27.17
2018-08-12T15:17:27.833Z,27.22
2018-08-12T15:19:56.854Z,27.31
2018-08-12T15:22:25.841Z,27.02
2018-08-12T15:24:54.720Z,26.96
2018-08-12T15:27:23.651Z,27.05
2018-08-12T15:29:53.758Z,26.80
2018-08-12T15:32:22.647Z,26.87
2018-08-12T15:34:51.558Z,26.75
2018-08-12T15:37:20.528Z,26.63
2018-08-12T15:39:49.502Z,26.78
2018-08-12T15:42:18.541Z,26.83
2018-08-12T15:44:47.445Z,26.86
2018-08-12T15:47:16.540Z,26.75
2018-08-12T15:49:45.963Z,26.83
2018-08-12T15:52:14.859Z,26.83
2018-08-12T15:54:44.019Z,26.93
2018-08-12T15:57:13.389Z,26.73
2018-08-12T15:59:42.297Z,26.98
2018-08-12T16:02:11.192Z,26.80
2018-08-12T16:04:40.106Z,26.92
2018-08-12T16:07:10.032Z,26.84
2018-08-12T16:09:38.924Z,26.98
2018-08-12T16:12:08.886Z,26.83
2018-08-12T16:14:37.841Z,26.93
2018-08-12T16:17:07.056Z,26.84
2018-08-12T16:19:35.987Z,26.87
2018-08-12T16:22:04.965Z,26.94
2018-08-12T16:24:33.862Z,26.96
2018-08-12T16:27:02.805Z,26.76
2018-08-12T16:29:31.701Z,26.95
2018-08-12T16:32:00.619Z,26.93
2018-08-12T16:34:29.521Z,26.87
2018-08-12T16:36:58.447Z,26.77
2018-08-12T16:39:27.472Z,26.87
2018-08-12T16:41:56.338Z,26.89
2018-08-12T16:44:25.295Z,26.91
2018-08-12T16:46:54.173Z,26.69
2018-08-12T16:49:23.279Z,26.91
2018-08-12T16:51:52.124Z,26.85
2018-08-12T16:54:20.974Z,26.85
2018-08-12T16:56:50.015Z,26.87
2018-08-12T16:59:18.890Z,26.84
2018-08-12T17:01:47.865Z,26.60
2018-08-12T17:04:16.922Z,26.82
2018-08-12T17:06:45.734Z,26.79
2018-08-12T17:09:14.568Z,26.75
2018-08-12T17:11:43.698Z,26.70
2018-08-12T17:14:12.669Z,26.62
2018-08-12T17:16:41.686Z,26.50
2018-08-12T17:19:10.674Z,26.45
2018-08-12T17:21:39.684Z,26.54
2018-08-12T17:24:08.707Z,26.54
2018-08-12T17:26:37.767Z,26.56
2018-08-12T17:29:06.891Z,26.55
2018-08-12T17:31:35.955Z,26.46
2018-08-12T17:34:04.915Z,26.44
2018-08-12T17:36:33.871Z,26.48
2018-08-12T17:39:02.746Z,26.45
2018-08-12T17:41:31.675Z,26.32
2018-08-12T17:44:01.909Z,26.21
2018-08-12T17:46:30.798Z,26.12
2018-08-12T17:48:59.721Z,26.10
2018-08-12T17:51:28.645Z,25.96
2018-08-12T17:53:59.749Z,25.93
2018-08-12T17:56:29.114Z,25.96
2018-08-12T17:58:58.357Z,25.83
2018-08-12T18:01:27.262Z,25.68
2018-08-12T18:03:56.167Z,25.79
2018-08-12T18:06:25.061Z,25.71
2018-08-12T18:08:53.934Z,25.64
2018-08-12T18:11:22.892Z,25.59
2018-08-12T18:13:51.771Z,25.49
2018-08-12T18:16:20.664Z,25.45
2018-08-12T18:18:49.561Z,25.42
2018-08-12T18:21:18.422Z,25.33
2018-08-12T18:23:47.330Z,25.27
2018-08-12T18:26:17.352Z,25.18
2018-08-12T18:28:46.252Z,25.16
2018-08-12T18:31:15.126Z,25.09
2018-08-12T18:33:44.072Z,25.06
2018-08-12T18:36:12.927Z,25.00
2018-08-12T18:38:41.876Z,24.96
2018-08-12T18:41:10.783Z,24.89
2018-08-12T18:43:39.627Z,24.86
2018-08-12T18:46:08.537Z,24.86
2018-08-12T18:48:37.460Z,24.81
2018-08-12T18:51:06.424Z,24.74
2018-08-12T18:53:35.417Z,24.68
2018-08-12T18:56:04.344Z,24.64
2018-08-12T18:58:33.219Z,24.58
2018-08-12T19:01:02.112Z,24.53
2018-08-12T19:03:31.045Z,24.52
2018-08-12T19:05:59.955Z,24.51
2018-08-12T19:08:28.909Z,24.46
2018-08-12T19:10:58.812Z,24.42
2018-08-12T19:13:27.696Z,24.41
2018-08-12T19:15:56.623Z,24.38
2018-08-12T19:18:25.496Z,24.32
2018-08-12T19:20:54.391Z,24.31
2018-08-12T19:23:23.377Z,24.30
2018-08-12T19:25:52.287Z,24.24
2018-08-12T19:28:21.174Z,24.16
2018-08-12T19:30:50.089Z,24.11
2018-08-12T19:33:18.993Z,24.05
2018-08-12T19:35:47.866Z,23.95
2018-08-12T19:38:16.825Z,23.85
2018-08-12T19:40:45.725Z,23.87
2018-08-12T19:43:14.625Z,23.73
2018-08-12T19:45:43.516Z,23.52
2018-08-12T19:48:12.454Z,23.37
2018-08-12T19:50:41.388Z,23.31
2018-08-12T19:53:10.603Z,23.30
2018-08-12T19:55:39.480Z,23.28
2018-08-12T19:58:08.369Z,23.16
2018-08-12T20:00:37.369Z,23.18
2018-08-12T20:03:06.733Z,23.12
2018-08-12T20:05:35.630Z,23.16
2018-08-12T20:08:04.528Z,23.14
2018-08-12T20:10:33.463Z,23.01
2018-08-12T20:13:02.350Z,22.94
2018-08-12T20:15:31.217Z,22.95
2018-08-12T20:18:00.146Z,22.92
2018-08-12T20:20:29.033Z,22.74
2018-08-12T20:22:57.983Z,22.66
2018-08-12T20:25:26.888Z,22.64
2018-08-12T20:27:55.810Z,22.72
2018-08-12T20:30:24.682Z,22.70
2018-08-12T20:32:53.581Z,22.58
2018-08-12T20:35:22.476Z,22.60
2018-08-12T20:37:51.390Z,22.62
2018-08-12T20:40:20.289Z,22.56
2018-08-12T20:42:49.214Z,22.51
2018-08-12T20:45:18.056Z,22.50
2018-08-12T20:47:46.944Z,22.43
2018-08-12T20:50:15.907Z,22.46
2018-08-12T20:52:44.769Z,22.47
2018-08-12T20:55:13.645Z,22.42
2018-08-12T20:57:42.591Z,22.39
2018-08-12T21:00:11.585Z,22.39
2018-08-12T21:02:40.499Z,22.05
2018-08-12T21:05:09.403Z,21.95
2018-08-12T21:07:40.397Z,21.95
2018-08-12T21:10:09.350Z,22.00
2018-08-12T21:12:38.252Z,22.12
2018-08-12T21:15:07.144Z,22.08
2018-08-12T21:17:36.136Z,22.05
2018-08-12T21:20:05.777Z,21.88
2018-08-12T21:22:34.648Z,21.58
2018-08-12T21:25:03.564Z,21.72
2018-08-12T21:27:33.523Z,21.80
2018-08-12T21:30:02.470Z,21.79
2018-08-12T21:32:31.373Z,21.67
2018-08-12T21:35:00.305Z,21.48
2018-08-12T21:37:29.230Z,21.57
2018-08-12T21:39:58.135Z,21.58
2018-08-12T21:42:27.100Z,21.58
2018-08-12T21:44:55.998Z,21.49
2018-08-12T21:47:24.905Z,21.51
2018-08-12T21:49:53.828Z,21.46
2018-08-12T21:52:22.697Z,21.28
2018-08-12T21:54:51.598Z,21.14
2018-08-12T21:57:20.496Z,20.90
2018-08-12T21:59:49.439Z,20.93
2018-08-12T22:02:18.290Z,20.88
2018-08-12T22:04:47.203Z,20.85
2018-08-12T22:07:17.126Z,20.86
2018-08-12T22:09:46.056Z,20.77
2018-08-12T22:12:14.965Z,20.74
2018-08-12T22:14:43.877Z,20.68
2018-08-12T22:17:12.798Z,20.78
2018-08-12T22:19:41.880Z,20.57
2018-08-12T22:22:10.798Z,20.72
2018-08-12T22:24:39.687Z,20.56
2018-08-12T22:27:08.631Z,20.55
2018-08-12T22:29:37.511Z,20.56
2018-08-12T22:32:06.653Z,20.55
2018-08-12T22:34:35.912Z,20.45
2018-08-12T22:37:05.011Z,20.36
2018-08-12T22:39:33.989Z,20.40
2018-08-12T22:42:02.878Z,20.39
2018-08-12T22:44:31.821Z,20.42
2018-08-12T22:47:00.707Z,20.38
2018-08-12T22:49:29.609Z,20.51
2018-08-12T22:51:58.494Z,20.39
2018-08-12T22:54:27.421Z,20.37
2018-08-12T22:56:56.327Z,20.41
2018-08-12T22:59:25.326Z,20.28
2018-08-12T23:01:54.226Z,20.28
2018-08-12T23:04:23.149Z,20.17
2018-08-12T23:06:52.033Z,20.29
2018-08-12T23:09:20.932Z,20.25
2018-08-12T23:11:49.813Z,20.27
2018-08-12T23:14:18.685Z,20.19
2018-08-12T23:16:59.025Z,20.26
2018-08-12T23:19:28.138Z,20.22
2018-08-12T23:21:57.072Z,20.22
2018-08-12T23:24:25.976Z,20.18
2018-08-12T23:26:54.932Z,20.18
2018-08-12T23:29:23.804Z,20.19
2018-08-12T23:31:52.727Z,20.22
2018-08-12T23:34:21.624Z,20.28
2018-08-12T23:36:50.538Z,20.27
2018-08-12T23:39:19.426Z,20.31
2018-08-12T23:41:48.321Z,20.42
2018-08-12T23:44:17.229Z,20.39
2018-08-12T23:46:46.108Z,20.37
2018-08-12T23:49:15.033Z,20.52
2018-08-12T23:51:43.925Z,20.56
2018-08-12T23:54:12.836Z,20.53
2018-08-12T23:56:41.716Z,20.38
2018-08-12T23:59:10.637Z,20.46
